createdAt,value
2022-11-28T00:00:44.714Z,8.27
2022-11-28T00:03:12.403Z,8.10
2022-11-28T00:05:45.653Z,7.95
2022-11-28T00:08:17.107Z,7.63
2022-11-28T00:10:44.432Z,7.70
2022-11-28T00:13:11.669Z,7.38
2022-11-28T00:15:41.958Z,7.57
2022-11-28T00:18:10.783Z,7.20
2022-11-28T00:20:39.532Z,6.63
2022-11-28T00:23:07.238Z,7.60
2022-11-28T00:25:34.685Z,7.50
2022-11-28T00:28:03.199Z,7.70
2022-11-28T00:30:31.999Z,7.82
2022-11-28T00:33:00.301Z,7.30
2022-11-28T00:35:27.594Z,6.97
2022-11-28T00:37:54.823Z,7.40
2022-11-28T00:40:22.714Z,6.78
2022-11-28T00:42:50.222Z,6.75
2022-11-28T00:45:17.828Z,7.88
2022-11-28T00:47:47.210Z,6.82
2022-11-28T00:50:14.703Z,7.35
2022-11-28T00:52:42.413Z,8.15
2022-11-28T00:55:18.665Z,7.55
2022-11-28T00:57:47.613Z,7.85
2022-11-28T01:00:18.013Z,7.07
2022-11-28T01:02:45.232Z,8.10
2022-11-28T01:05:12.483Z,7.88
2022-11-28T01:07:43.285Z,7.40
2022-11-28T01:10:15.798Z,7.25
2022-11-28T01:12:43.029Z,8.18
2022-11-28T01:15:17.721Z,7.50
2022-11-28T01:17:45.029Z,7.22
2022-11-28T01:20:13.221Z,7.43
2022-11-28T01:22:40.635Z,7.25
2022-11-28T01:25:10.699Z,7.82
2022-11-28T01:27:40.642Z,7.13
2022-11-28T01:30:09.936Z,8.30
2022-11-28T01:32:38.786Z,7.75
2022-11-28T01:35:06.370Z,7.03
2022-11-28T01:37:34.098Z,7.75
2022-11-28T01:40:01.320Z,7.30
2022-11-28T01:42:28.493Z,7.20
2022-11-28T01:44:56.153Z,7.03
2022-11-28T01:47:26.690Z,6.25
2022-11-28T01:49:55.592Z,6.25
2022-11-28T01:52:24.157Z,6.90
2022-11-28T01:54:53.338Z,6.75
2022-11-28T01:57:25.193Z,7.05
2022-11-28T02:00:06.165Z,6.70
2022-11-28T02:02:38.474Z,6.80
2022-11-28T02:05:06.578Z,6.82
2022-11-28T02:07:34.559Z,6.65
2022-11-28T02:10:02.915Z,7.35
2022-11-28T02:12:38.173Z,6.68
2022-11-28T02:15:05.490Z,6.57
2022-11-28T02:17:42.599Z,7.18
2022-11-28T02:20:26.216Z,7.18
2022-11-28T02:23:00.080Z,6.57
2022-11-28T02:25:39.812Z,6.85
2022-11-28T02:28:41.806Z,7.05
2022-11-28T02:31:28.322Z,6.38
2022-11-28T02:34:00.671Z,6.40
2022-11-28T02:36:43.244Z,6.13
2022-11-28T02:39:46.212Z,6.40
2022-11-28T02:42:20.958Z,6.20
2022-11-28T02:44:57.122Z,6.07
2022-11-28T02:47:27.139Z,6.30
2022-11-28T02:50:06.524Z,5.63
2022-11-28T02:52:46.253Z,6.72
2022-11-28T02:55:17.017Z,5.88
2022-11-28T02:57:52.285Z,6.00
2022-11-28T03:00:31.352Z,5.85
2022-11-28T03:02:58.933Z,5.57
2022-11-28T03:05:30.932Z,6.00
2022-11-28T03:08:12.328Z,5.60
2022-11-28T03:10:48.353Z,5.22
2022-11-28T03:13:18.565Z,5.90
2022-11-28T03:15:55.180Z,4.78
2022-11-28T03:18:51.927Z,5.07
2022-11-28T03:21:27.859Z,5.22
2022-11-28T03:23:59.058Z,5.40
2022-11-28T03:26:46.490Z,6.15
2022-11-28T03:29:17.319Z,5.18
2022-11-28T03:31:49.095Z,5.57
2022-11-28T03:34:21.823Z,5.50
2022-11-28T03:36:53.172Z,6.13
2022-11-28T03:39:23.130Z,5.78
2022-11-28T03:42:07.404Z,5.32
2022-11-28T03:44:41.771Z,5.82
2022-11-28T03:47:12.172Z,6.22
2022-11-28T03:49:41.779Z,5.82
2022-11-28T03:52:13.450Z,5.97
2022-11-28T03:54:54.084Z,5.85
2022-11-28T03:57:24.603Z,5.28
2022-11-28T03:59:53.950Z,5.78
2022-11-28T04:02:27.413Z,6.32
2022-11-28T04:07:40.952Z,5.93
2022-11-28T04:10:26.648Z,6.25
2022-11-28T04:12:54.393Z,5.75
2022-11-28T04:15:27.993Z,6.00
2022-11-28T04:17:58.807Z,6.18
2022-11-28T04:20:32.252Z,6.07
2022-11-28T04:23:03.474Z,6.53
2022-11-28T04:25:36.339Z,6.40
2022-11-28T04:28:06.209Z,6.95
2022-11-28T04:30:36.850Z,6.30
2022-11-28T04:33:08.592Z,6.75
2022-11-28T04:35:40.767Z,6.85
2022-11-28T04:38:13.003Z,6.00
2022-11-28T04:40:55.208Z,6.70
2022-11-28T04:43:25.326Z,6.38
2022-11-28T04:45:56.184Z,6.55
2022-11-28T04:48:31.193Z,6.80
2022-11-28T04:51:22.003Z,6.03
2022-11-28T04:54:03.994Z,6.22
2022-11-28T04:56:54.648Z,6.32
2022-11-28T04:59:26.996Z,6.63
2022-11-28T05:01:55.235Z,6.20
2022-11-28T05:04:22.480Z,6.68
2022-11-28T05:06:55.071Z,6.70
2022-11-28T05:09:25.915Z,5.87
2022-11-28T05:11:53.473Z,6.43
2022-11-28T05:14:20.848Z,6.65
2022-11-28T05:16:48.271Z,6.43
2022-11-28T05:19:19.147Z,6.22
2022-11-28T05:21:48.607Z,6.43
2022-11-28T05:24:17.738Z,6.47
2022-11-28T05:26:45.401Z,6.65
2022-11-28T05:29:13.260Z,6.93
2022-11-28T05:31:40.525Z,6.25
2022-11-28T05:34:10.094Z,6.60
2022-11-28T05:36:39.493Z,6.82
2022-11-28T05:39:07.071Z,6.57
2022-11-28T05:41:37.313Z,6.03
2022-11-28T05:44:04.736Z,6.43
2022-11-28T05:46:33.302Z,6.03
2022-11-28T05:49:01.828Z,6.45
2022-11-28T05:51:29.096Z,6.05
2022-11-28T05:53:56.632Z,6.20
2022-11-28T05:56:24.259Z,6.30
2022-11-28T05:58:51.840Z,6.70
2022-11-28T06:04:48.185Z,6.43
2022-11-28T06:07:20.325Z,6.43
2022-11-28T06:09:47.835Z,7.22
2022-11-28T06:12:17.740Z,6.82
2022-11-28T06:14:45.777Z,7.40
2022-11-28T06:17:12.922Z,6.60
2022-11-28T06:19:40.789Z,6.68
2022-11-28T06:22:10.809Z,7.03
2022-11-28T06:24:40.193Z,7.15
2022-11-28T06:27:07.427Z,6.55
2022-11-28T06:29:35.075Z,6.55
2022-11-28T06:37:18.092Z,6.47
2022-11-28T06:42:27.793Z,6.72
2022-11-28T06:44:57.230Z,7.22
2022-11-28T06:47:27.702Z,7.07
2022-11-28T06:49:57.831Z,7.57
2022-11-28T06:52:31.898Z,7.10
2022-11-28T06:54:59.268Z,7.70
2022-11-28T06:57:28.098Z,7.40
2022-11-28T07:00:04.351Z,7.53
2022-11-28T07:02:40.366Z,7.60
2022-11-28T07:05:28.260Z,7.13
2022-11-28T07:07:58.961Z,7.30
2022-11-28T07:10:30.077Z,7.70
2022-11-28T07:13:10.166Z,8.05
2022-11-28T07:15:48.039Z,8.48
2022-11-28T07:18:20.935Z,7.38
2022-11-28T07:20:49.353Z,7.72
2022-11-28T07:23:22.817Z,7.70
2022-11-28T07:26:00.845Z,7.63
2022-11-28T07:28:31.259Z,7.97
2022-11-28T07:31:07.523Z,8.38
2022-11-28T07:33:39.780Z,8.30
2022-11-28T07:36:58.229Z,9.63
2022-11-28T07:39:17.932Z,8.52
2022-11-28T07:41:46.080Z,9.70
2022-11-28T07:44:20.694Z,9.30
2022-11-28T07:46:48.538Z,9.25
2022-11-28T07:49:17.506Z,10.13
2022-11-28T07:51:46.757Z,9.70
2022-11-28T07:54:13.996Z,9.88
2022-11-28T07:57:12.042Z,9.88
2022-11-28T07:59:51.675Z,9.85
2022-11-28T08:03:00.250Z,9.88
2022-11-28T08:05:28.107Z,10.10
2022-11-28T08:07:58.365Z,9.48
2022-11-28T08:10:29.204Z,10.60
2022-11-28T08:12:56.706Z,10.40
2022-11-28T08:15:31.917Z,10.45
2022-11-28T08:18:09.717Z,9.80
2022-11-28T08:20:43.179Z,9.73
2022-11-28T08:26:03.108Z,9.68
2022-11-28T08:28:34.062Z,10.57
2022-11-28T08:31:04.351Z,11.52
2022-11-28T08:33:35.256Z,10.30
2022-11-28T08:36:13.057Z,10.73
2022-11-28T08:39:03.270Z,10.70
2022-11-28T08:41:42.188Z,10.02
2022-11-28T08:44:18.295Z,9.95
2022-11-28T08:46:51.384Z,9.82
2022-11-28T08:49:22.419Z,9.60
2022-11-28T08:51:52.260Z,9.60
2022-11-28T08:54:21.374Z,9.48
2022-11-28T08:56:49.559Z,9.38
2022-11-28T08:59:16.917Z,9.45
2022-11-28T09:01:44.213Z,9.20
2022-11-28T09:04:15.436Z,9.30
2022-11-28T09:06:46.836Z,9.85
2022-11-28T09:09:17.075Z,8.18
2022-11-28T09:11:49.099Z,9.88
2022-11-28T09:14:25.323Z,9.65
2022-11-28T09:17:00.562Z,10.25
2022-11-28T09:19:27.901Z,10.70
2022-11-28T09:22:03.302Z,10.95
2022-11-28T09:24:36.048Z,11.90
2022-11-28T09:27:06.417Z,11.15
2022-11-28T09:29:33.864Z,12.05
2022-11-28T09:32:01.520Z,12.13
2022-11-28T09:34:37.245Z,12.00
2022-11-28T09:37:05.194Z,12.15
2022-11-28T09:39:50.165Z,12.43
2022-11-28T09:42:33.806Z,14.18
2022-11-28T09:45:10.406Z,13.88
2022-11-28T09:47:45.423Z,14.48
2022-11-28T09:50:21.163Z,14.93
2022-11-28T09:52:59.386Z,14.40
2022-11-28T09:55:37.302Z,14.57
2022-11-28T09:58:29.120Z,16.73
2022-11-28T10:01:12.770Z,16.42
2022-11-28T10:03:44.236Z,17.25
2022-11-28T10:06:20.785Z,16.65
2022-11-28T10:09:06.982Z,17.80
2022-11-28T10:11:56.251Z,16.65
2022-11-28T10:14:42.736Z,17.33
2022-11-28T10:17:29.011Z,16.10
2022-11-28T10:20:06.620Z,18.10
2022-11-28T10:22:47.830Z,17.90
2022-11-28T10:25:20.026Z,16.92
2022-11-28T10:27:48.481Z,17.75
2022-11-28T10:30:25.631Z,18.10
2022-11-28T10:33:01.219Z,18.77
2022-11-28T10:35:40.767Z,19.25
2022-11-28T10:38:15.203Z,19.13
2022-11-28T10:40:42.744Z,19.15
2022-11-28T10:43:29.407Z,18.48
2022-11-28T10:46:19.576Z,19.15
2022-11-28T10:48:53.108Z,20.25
2022-11-28T10:54:20.837Z,20.23
2022-11-28T10:56:59.892Z,19.98
2022-11-28T10:59:50.856Z,20.58
2022-11-28T11:02:22.895Z,20.63
2022-11-28T11:04:54.697Z,20.45
2022-11-28T11:07:30.744Z,19.85
2022-11-28T11:10:16.085Z,19.90
2022-11-28T11:12:46.193Z,19.27
2022-11-28T11:15:36.293Z,20.10
2022-11-28T11:18:28.159Z,20.48
2022-11-28T11:21:22.131Z,20.67
2022-11-28T11:26:28.510Z,18.48
2022-11-28T11:28:57.214Z,19.58
2022-11-28T11:31:24.783Z,19.45
2022-11-28T11:34:12.739Z,18.92
2022-11-28T11:36:46.777Z,19.40
2022-11-28T11:39:13.963Z,19.00
2022-11-28T11:41:42.781Z,18.13
2022-11-28T11:44:37.367Z,18.15
2022-11-28T11:47:10.557Z,17.55
2022-11-28T11:49:42.539Z,19.25
2022-11-28T11:52:13.437Z,19.48
2022-11-28T11:54:54.904Z,19.67
2022-11-28T11:57:33.120Z,19.15
2022-11-28T12:00:06.356Z,18.55
2022-11-28T12:02:41.813Z,19.00
2022-11-28T12:05:19.106Z,18.98
2022-11-28T12:07:58.229Z,18.20
2022-11-28T12:10:27.439Z,19.20
2022-11-28T12:12:54.745Z,19.27
2022-11-28T12:15:37.334Z,18.00
2022-11-28T12:18:12.560Z,17.67
2022-11-28T12:20:46.843Z,18.42
2022-11-28T12:23:25.838Z,19.30
2022-11-28T12:25:56.932Z,18.25
2022-11-28T12:28:43.135Z,18.55
2022-11-28T12:31:27.561Z,19.13
2022-11-28T12:34:07.378Z,18.38
2022-11-28T12:36:44.891Z,19.38
2022-11-28T12:39:13.191Z,18.83
2022-11-28T12:41:44.864Z,19.00
2022-11-28T12:44:28.998Z,18.88
2022-11-28T12:47:20.976Z,18.15
2022-11-28T12:50:10.530Z,19.42
2022-11-28T12:52:47.380Z,19.75
2022-11-28T12:55:19.887Z,19.75
2022-11-28T12:57:55.284Z,19.65
2022-11-28T13:00:27.077Z,20.20
2022-11-28T13:03:23.455Z,19.27
2022-11-28T13:05:53.619Z,19.27
2022-11-28T13:08:48.774Z,20.38
2022-11-28T13:11:44.838Z,19.52
2022-11-28T13:14:30.902Z,18.83
2022-11-28T13:17:13.131Z,19.55
2022-11-28T13:20:06.193Z,18.75
2022-11-28T13:22:45.932Z,19.08
2022-11-28T13:25:36.557Z,17.60
2022-11-28T13:28:07.078Z,18.80
2022-11-28T13:31:20.053Z,19.60
2022-11-28T13:33:52.070Z,20.13
2022-11-28T13:39:13.491Z,20.88
2022-11-28T13:42:36.558Z,21.15
2022-11-28T13:44:50.016Z,20.30
2022-11-28T13:47:30.846Z,22.70
2022-11-28T13:50:19.277Z,21.05
2022-11-28T13:53:27.120Z,20.55
2022-11-28T13:56:03.568Z,22.45
2022-11-28T13:58:33.892Z,20.88
2022-11-28T14:01:07.603Z,21.35
2022-11-28T14:03:38.942Z,21.17
2022-11-28T14:09:15.698Z,20.63
2022-11-28T14:12:07.824Z,21.27
2022-11-28T14:14:58.266Z,21.02
2022-11-28T14:17:40.289Z,21.33
2022-11-28T14:20:17.478Z,19.00
2022-11-28T14:22:55.270Z,19.55
2022-11-28T14:25:45.595Z,19.67
2022-11-28T14:28:51.007Z,19.70
2022-11-28T14:32:00.386Z,17.58
2022-11-28T14:35:05.480Z,20.98
2022-11-28T14:37:34.899Z,19.44
2022-11-28T14:40:03.473Z,21.17
2022-11-28T14:42:59.488Z,21.02
2022-11-28T14:45:40.673Z,20.20
2022-11-28T14:48:23.792Z,20.05
2022-11-28T14:51:11.637Z,19.23
2022-11-28T14:53:43.856Z,19.20
2022-11-28T14:56:13.395Z,19.73
2022-11-28T14:58:49.068Z,19.05
2022-11-28T15:01:35.092Z,19.85
2022-11-28T15:04:05.605Z,19.58
2022-11-28T15:06:51.801Z,18.50
2022-11-28T15:09:46.717Z,19.55
2022-11-28T15:12:48.959Z,20.02
2022-11-28T15:15:43.899Z,18.48
2022-11-28T15:18:21.751Z,19.05
2022-11-28T15:20:54.023Z,18.90
2022-11-28T15:23:26.814Z,17.58
2022-11-28T15:26:01.939Z,19.02
2022-11-28T15:28:34.944Z,20.67
2022-11-28T15:31:10.297Z,18.50
2022-11-28T15:33:55.752Z,18.42
2022-11-28T15:36:58.068Z,15.82
2022-11-28T15:42:43.740Z,19.05
2022-11-28T15:45:21.925Z,19.08
2022-11-28T15:47:50.054Z,16.83
2022-11-28T15:50:19.610Z,18.83
2022-11-28T15:53:16.481Z,17.77
2022-11-28T15:55:50.686Z,18.00
2022-11-28T15:58:20.706Z,20.15
2022-11-28T16:00:58.791Z,19.10
2022-11-28T16:03:32.016Z,18.98
2022-11-28T16:08:40.224Z,15.18
2022-11-28T16:11:13.532Z,19.55
2022-11-28T16:13:41.716Z,18.35
2022-11-28T16:16:11.751Z,19.67
2022-11-28T16:18:42.732Z,17.75
2022-11-28T16:21:53.421Z,21.52
2022-11-28T16:24:48.529Z,18.85
2022-11-28T16:27:34.718Z,15.20
2022-11-28T16:30:02.743Z,19.30
2022-11-28T16:32:43.918Z,20.73
2022-11-28T16:35:13.045Z,19.10
2022-11-28T16:37:46.575Z,20.38
2022-11-28T16:40:18.131Z,21.17
2022-11-28T16:42:55.316Z,21.80
2022-11-28T16:45:27.906Z,22.17
2022-11-28T16:48:13.931Z,22.07
2022-11-28T16:50:59.755Z,21.38
2022-11-28T16:53:59.311Z,22.38
2022-11-28T16:56:32.980Z,19.25
2022-11-28T16:59:20.402Z,20.38
2022-11-28T17:01:52.549Z,22.25
2022-11-28T17:04:23.406Z,22.27
2022-11-28T17:06:51.713Z,20.65
2022-11-28T17:09:19.758Z,20.63
2022-11-28T17:12:07.715Z,19.50
2022-11-28T17:14:42.390Z,19.50
2022-11-28T17:17:18.291Z,22.50
2022-11-28T17:19:47.061Z,20.60
2022-11-28T17:22:19.882Z,22.80
2022-11-28T17:24:47.874Z,20.70
2022-11-28T17:27:16.120Z,21.60
2022-11-28T17:29:44.613Z,19.52
2022-11-28T17:32:18.230Z,21.88
2022-11-28T17:37:16.689Z,18.40
2022-11-28T17:40:05.864Z,20.35
2022-11-28T17:42:33.263Z,17.25
2022-11-28T17:45:00.805Z,20.67
2022-11-28T17:47:31.586Z,20.85
2022-11-28T17:49:59.553Z,22.13
2022-11-28T17:52:32.391Z,18.92
2022-11-28T17:55:07.135Z,22.27
2022-11-28T17:57:47.404Z,24.85
2022-11-28T18:00:29.368Z,18.75
2022-11-28T18:02:57.343Z,21.40
2022-11-28T18:05:25.179Z,20.38
2022-11-28T18:07:59.576Z,19.15
2022-11-28T18:10:27.192Z,25.73
2022-11-28T18:13:02.695Z,24.13
2022-11-28T18:15:42.914Z,19.60
2022-11-28T18:18:27.248Z,18.25
2022-11-28T18:20:57.775Z,17.85
2022-11-28T18:23:26.634Z,19.35
2022-11-28T18:25:56.834Z,21.90
2022-11-28T18:28:37.943Z,23.40
2022-11-28T18:31:24.912Z,20.42
2022-11-28T18:33:56.152Z,20.67
2022-11-28T18:36:36.725Z,18.35
2022-11-28T18:39:13.041Z,21.65
2022-11-28T18:41:41.319Z,17.98
2022-11-28T18:44:16.432Z,19.92
2022-11-28T18:46:49.589Z,18.45
2022-11-28T18:49:19.238Z,21.45
2022-11-28T18:54:42.112Z,23.00
2022-11-28T19:02:51.625Z,17.30
2022-11-28T19:05:26.278Z,16.33
2022-11-28T19:07:58.284Z,17.13
2022-11-28T19:10:28.694Z,16.10
2022-11-28T19:12:59.433Z,16.15
2022-11-28T19:15:28.670Z,17.17
2022-11-28T19:17:59.072Z,19.13
2022-11-28T19:20:29.208Z,18.13
2022-11-28T19:22:59.641Z,17.77
2022-11-28T19:25:34.970Z,21.95
2022-11-28T19:28:02.538Z,20.50
2022-11-28T19:30:30.592Z,20.65
2022-11-28T19:33:01.192Z,19.75
2022-11-28T19:35:32.133Z,21.23
2022-11-28T19:38:01.548Z,20.40
2022-11-28T19:40:31.516Z,21.35
2022-11-28T19:43:05.713Z,21.15
2022-11-28T19:45:35.721Z,22.42
2022-11-28T19:48:04.169Z,23.48
2022-11-28T19:50:31.801Z,22.90
2022-11-28T19:53:02.802Z,22.50
2022-11-28T19:55:33.132Z,22.10
2022-11-28T19:58:01.605Z,22.58
2022-11-28T20:00:29.467Z,25.60
2022-11-28T20:02:57.048Z,25.42
2022-11-28T20:05:24.598Z,26.65
2022-11-28T20:07:55.594Z,26.85
2022-11-28T20:10:33.267Z,24.90
2022-11-28T20:13:01.015Z,25.65
2022-11-28T20:15:29.329Z,26.17
2022-11-28T20:17:59.302Z,27.65
2022-11-28T20:20:26.936Z,25.45
2022-11-28T20:22:57.590Z,26.83
2022-11-28T20:25:24.828Z,26.10
2022-11-28T20:27:52.394Z,29.25
2022-11-28T20:30:20.214Z,30.30
2022-11-28T20:32:52.150Z,25.55
2022-11-28T20:35:19.821Z,25.75
2022-11-28T20:37:48.038Z,26.15
2022-11-28T20:40:22.898Z,24.00
2022-11-28T20:42:51.662Z,25.48
2022-11-28T20:45:19.514Z,23.02
2022-11-28T20:47:50.221Z,23.60
2022-11-28T20:50:18.924Z,24.60
2022-11-28T20:52:48.362Z,26.50
2022-11-28T20:55:18.568Z,24.55
2022-11-28T20:57:46.153Z,23.88
2022-11-28T21:00:16.653Z,24.17
2022-11-28T21:02:45.998Z,23.83
2022-11-28T21:05:19.266Z,23.50
2022-11-28T21:07:48.006Z,24.30
2022-11-28T21:10:18.866Z,25.90
2022-11-28T21:12:51.528Z,24.85
2022-11-28T21:15:21.414Z,27.23
2022-11-28T21:17:50.195Z,27.10
2022-11-28T21:21:11.890Z,26.45
2022-11-28T21:23:39.801Z,25.65
2022-11-28T21:26:11.331Z,25.92
2022-11-28T21:28:39.608Z,28.10
2022-11-28T21:31:20.521Z,26.38
2022-11-28T21:33:58.996Z,28.65
2022-11-28T21:36:27.986Z,28.60
2022-11-28T21:38:58.720Z,29.02
2022-11-28T21:41:32.295Z,32.30
2022-11-28T21:44:00.303Z,30.27
2022-11-28T21:46:29.302Z,30.00
2022-11-28T21:48:58.614Z,28.15
2022-11-28T21:51:28.638Z,30.45
2022-11-28T21:53:57.806Z,31.73
2022-11-28T21:56:25.699Z,31.52
2022-11-28T21:58:53.157Z,28.05
2022-11-28T22:01:23.062Z,31.05
2022-11-28T22:03:50.592Z,29.98
2022-11-28T22:06:21.117Z,31.35
2022-11-28T22:08:51.788Z,31.23
2022-11-28T22:11:20.127Z,32.03
2022-11-28T22:13:48.180Z,31.95
2022-11-28T22:16:17.147Z,30.83
2022-11-28T22:18:45.315Z,29.27
2022-11-28T22:24:00.769Z,30.65
2022-11-28T22:26:28.248Z,31.73
2022-11-28T22:28:55.437Z,32.33
2022-11-28T22:31:23.990Z,34.55
2022-11-28T22:33:52.022Z,31.27
2022-11-28T22:36:20.530Z,30.67
2022-11-28T22:38:48.254Z,31.85
2022-11-28T22:41:27.869Z,31.67
2022-11-28T22:43:56.679Z,32.15
2022-11-28T22:46:24.469Z,33.10
2022-11-28T22:48:52.054Z,32.47
2022-11-28T22:51:21.662Z,32.00
2022-11-28T22:53:49.011Z,32.97
2022-11-28T22:56:19.260Z,32.90
2022-11-28T22:58:46.986Z,33.50
2022-11-28T23:01:17.176Z,34.55
2022-11-28T23:03:45.391Z,34.35
2022-11-28T23:06:17.210Z,32.45
2022-11-28T23:08:45.180Z,32.83
2022-11-28T23:11:15.852Z,32.13
2022-11-28T23:13:43.750Z,31.58
2022-11-28T23:16:16.156Z,31.25
2022-11-28T23:18:44.436Z,32.92
2022-11-28T23:21:11.911Z,30.75
2022-11-28T23:23:39.877Z,31.63
2022-11-28T23:26:21.832Z,29.65
2022-11-28T23:28:49.358Z,31.88
2022-11-28T23:31:21.214Z,27.27
2022-11-28T23:33:48.878Z,28.20
2022-11-28T23:36:19.279Z,30.27
2022-11-28T23:38:49.609Z,30.55
2022-11-28T23:41:17.577Z,31.77
2022-11-28T23:43:45.225Z,31.33
2022-11-28T23:46:13.577Z,31.25
2022-11-28T23:48:40.992Z,32.63
2022-11-28T23:51:09.495Z,32.33
2022-11-28T23:53:36.998Z,30.83
2022-11-28T23:56:05.009Z,31.50
2022-11-28T23:58:32.352Z,30.13
